Time;durP1;ratioP1;P1;durP2;ratioP2;P2;SDS_P1;SDS_P2;PMS_P1;PMS_P2;Temp;Humidity;BMP_temperature;BMP_pressure;BME280_temperature;BME280_humidity;BME280_pressure;Samples;Min_cycle;Max_cycle;Signal;HPM_P1;HPM_P2
2022/12/27 00:00:40;;;;;;;0.90;0.90;;;18.10;66.20;;;;;;5086672;28;44013;-72
2022/12/27 00:03:08;;;;;;;1.00;1.00;;;18.10;66.40;;;;;;5068776;28;43522;-71
2022/12/27 00:05:37;;;;;;;0.93;0.93;;;18.10;66.40;;;;;;5086600;28;43540;-72
2022/12/27 00:08:05;;;;;;;0.90;0.90;;;18.00;66.50;;;;;;5086507;28;43533;-71
2022/12/27 00:10:33;;;;;;;0.90;0.90;;;18.00;66.70;;;;;;5084199;28;43445;-71
2022/12/27 00:13:01;;;;;;;0.90;0.90;;;18.00;66.50;;;;;;5067753;28;43413;-71
2022/12/27 00:15:29;;;;;;;1.00;1.00;;;18.00;66.50;;;;;;5086728;28;43930;-72
2022/12/27 00:17:57;;;;;;;0.90;0.90;;;18.00;66.60;;;;;;5086155;28;43412;-72
2022/12/27 00:20:25;;;;;;;1.00;1.00;;;18.00;66.70;;;;;;5086616;28;43431;-72
2022/12/27 00:22:55;;;;;;;0.90;0.90;;;17.90;66.70;;;;;;5086917;28;43850;-72
2022/12/27 00:25:23;;;;;;;0.90;0.90;;;17.90;66.90;;;;;;5086679;28;43887;-72
2022/12/27 00:27:51;;;;;;;0.90;0.90;;;17.90;66.70;;;;;;5086141;28;43509;-71
2022/12/27 00:30:19;;;;;;;0.90;0.90;;;17.90;66.60;;;;;;5068042;28;43460;-73
2022/12/27 00:32:47;;;;;;;0.90;0.90;;;17.90;66.70;;;;;;5086780;28;43437;-71
2022/12/27 00:35:15;;;;;;;0.83;0.83;;;17.90;66.70;;;;;;5067502;28;45561;-71
2022/12/27 00:37:42;;;;;;;1.10;1.10;;;17.90;66.80;;;;;;5085881;28;43449;-71
2022/12/27 00:40:13;;;;;;;0.90;0.90;;;17.90;66.90;;;;;;5085540;28;43503;-70
2022/12/27 00:42:41;;;;;;;0.90;0.90;;;18.00;66.80;;;;;;5067524;28;43494;-72
2022/12/27 00:45:10;;;;;;;0.93;0.93;;;18.10;66.40;;;;;;5067426;28;45763;-72
2022/12/27 00:47:39;;;;;;;1.00;1.00;;;18.20;66.00;;;;;;5067005;28;44303;-71
2022/12/27 00:50:07;;;;;;;0.90;0.90;;;18.30;65.80;;;;;;5086370;28;43442;-72
2022/12/27 00:52:35;;;;;;;1.00;1.00;;;18.20;65.60;;;;;;5085292;28;44275;-71
2022/12/27 00:55:03;;;;;;;1.00;1.00;;;18.20;65.90;;;;;;5085788;28;43614;-72
2022/12/27 00:57:32;;;;;;;0.93;0.93;;;18.20;65.90;;;;;;5086099;28;43403;-73
2022/12/27 01:00:00;;;;;;;1.00;1.00;;;18.20;65.80;;;;;;5067310;28;43514;-71
2022/12/27 01:02:36;;;;;;;1.10;1.10;;;18.10;65.90;;;;;;5080785;28;43446;-70
2022/12/27 01:05:05;;;;;;;0.90;0.90;;;18.10;66.20;;;;;;5084960;28;43919;-71
2022/12/27 01:07:33;;;;;;;0.80;0.80;;;18.00;66.20;;;;;;5085149;28;43457;-72
2022/12/27 01:10:01;;;;;;;0.90;0.90;;;18.00;67.20;;;;;;5085885;28;43985;-70
2022/12/27 01:12:29;;;;;;;0.90;0.90;;;18.00;66.30;;;;;;5086495;28;43468;-72
2022/12/27 01:14:58;;;;;;;0.70;0.70;;;18.00;67.00;;;;;;5067150;28;46237;-74
2022/12/27 01:17:26;;;;;;;0.93;0.93;;;18.00;66.50;;;;;;5083876;28;43971;-73
2022/12/27 01:19:54;;;;;;;1.33;0.90;;;17.90;66.40;;;;;;5086091;28;44051;-72
2022/12/27 01:22:22;;;;;;;0.97;0.97;;;17.90;66.60;;;;;;5085809;28;43442;-72
2022/12/27 01:24:50;;;;;;;1.00;1.00;;;17.90;66.70;;;;;;5085906;28;43832;-72
2022/12/27 01:27:18;;;;;;;0.90;0.90;;;17.90;66.60;;;;;;5085396;28;43950;-72
2022/12/27 01:29:46;;;;;;;0.87;0.87;;;17.90;66.60;;;;;;5085738;28;43928;-72
2022/12/27 01:32:15;;;;;;;0.80;0.80;;;17.90;66.70;;;;;;5085985;28;43503;-71
2022/12/27 01:34:43;;;;;;;0.90;0.90;;;17.90;66.70;;;;;;5085390;28;43920;-72
2022/12/27 01:37:11;;;;;;;0.90;0.90;;;17.90;66.80;;;;;;5084435;28;43455;-72
2022/12/27 01:39:39;;;;;;;0.90;0.90;;;17.80;66.80;;;;;;5084650;28;43942;-71
2022/12/27 01:44:59;;;;;;;0.93;0.93;;;18.00;66.20;;;;;;5083451;28;44015;-71
2022/12/27 01:47:34;;;;;;;0.90;0.90;;;18.10;65.90;;;;;;5084964;28;44003;-70
2022/12/27 01:50:14;;;;;;;0.93;0.93;;;18.20;65.80;;;;;;5080025;28;43442;-71
2022/12/27 01:52:45;;;;;;;0.90;0.90;;;18.10;65.80;;;;;;5082847;28;43435;-72
2022/12/27 01:55:20;;;;;;;0.80;0.80;;;18.10;66.00;;;;;;5069091;28;45874;-71
2022/12/27 01:57:48;;;;;;;0.93;0.93;;;18.10;65.90;;;;;;5088486;28;43481;-71
2022/12/27 02:00:16;;;;;;;0.70;0.70;;;18.10;65.90;;;;;;5088992;28;43351;-72
2022/12/27 02:02:45;;;;;;;1.17;1.00;;;18.00;66.10;;;;;;5070284;28;43559;-71
2022/12/27 02:05:14;;;;;;;0.90;0.90;;;18.00;66.20;;;;;;5084163;28;43775;-72
2022/12/27 02:07:59;;;;;;;0.90;0.90;;;18.00;66.60;;;;;;5088170;28;43514;-71
2022/12/27 02:10:27;;;;;;;1.00;1.00;;;17.90;66.40;;;;;;5088657;28;43953;-71
2022/12/27 02:12:56;;;;;;;0.90;0.90;;;17.90;66.30;;;;;;5089029;28;43404;-72
2022/12/27 02:15:24;;;;;;;1.00;1.00;;;17.90;66.40;;;;;;5069983;28;46185;-71
2022/12/27 02:17:53;;;;;;;1.00;1.00;;;17.90;66.50;;;;;;5082216;28;43446;-70
2022/12/27 02:20:22;;;;;;;0.80;0.80;;;17.90;66.60;;;;;;5087893;28;44053;-70
2022/12/27 02:26:26;;;;;;;0.90;0.90;;;17.90;66.60;;;;;;5087960;28;43886;-72
2022/12/27 02:29:20;;;;;;;0.87;0.87;;;18.00;66.20;;;;;;5081608;28;44108;-72
2022/12/27 02:31:51;;;;;;;0.70;0.70;;;18.10;66.10;;;;;;5068668;28;43479;-71
2022/12/27 02:34:22;;;;;;;0.80;0.80;;;18.00;66.00;;;;;;5088720;28;43378;-72
2022/12/27 02:36:51;;;;;;;1.10;1.10;;;18.00;66.20;;;;;;5087331;28;43864;-72
2022/12/27 02:39:19;;;;;;;0.90;0.90;;;18.00;66.20;;;;;;5069167;28;44902;-71
2022/12/27 02:53:07;;;;;;;0.90;0.90;;;17.90;66.50;;;;;;5085999;28;43448;-71
2022/12/27 02:57:07;;;;;;;0.90;0.90;;;17.90;66.60;;;;;;5069617;28;43575;-71
2022/12/27 02:58:39;;;;;;;0.90;0.90;;;18.00;66.30;;;;;;5082131;28;43919;-70
2022/12/27 03:04:07;;;;;;;1.00;1.00;;;18.00;66.10;;;;;;5067792;28;43399;-71
2022/12/27 03:06:46;;;;;;;0.90;0.90;;;18.00;66.20;;;;;;5087855;28;43457;-70
2022/12/27 03:18:13;;;;;;;0.80;0.80;;;17.90;66.40;;;;;;5080739;28;43490;-70
2022/12/27 03:26:21;;;;;;;0.80;0.80;;;17.80;66.50;;;;;;5038582;28;43459;-71
2022/12/27 03:34:34;;;;;;;0.70;0.70;;;17.80;66.70;;;;;;5084850;28;43469;-72
2022/12/27 03:39:52;;;;;;;0.77;0.77;;;17.80;66.70;;;;;;5082697;28;44189;-71
2022/12/27 03:45:08;;;;;;;0.80;0.80;;;18.00;66.10;;;;;;5067161;28;45002;-70
2022/12/27 03:47:36;;;;;;;0.87;0.87;;;18.10;65.80;;;;;;5086591;28;43408;-69
2022/12/27 03:50:07;;;;;;;0.77;0.77;;;18.00;65.70;;;;;;5068756;28;43775;-71
2022/12/27 03:52:38;;;;;;;1.00;1.00;;;18.00;66.00;;;;;;5086618;28;43901;-72
2022/12/27 03:55:06;;;;;;;0.80;0.80;;;18.00;65.90;;;;;;5086844;28;43509;-70
2022/12/27 03:57:34;;;;;;;0.80;0.80;;;18.00;65.80;;;;;;5083801;28;43397;-71
2022/12/27 04:00:03;;;;;;;0.70;0.70;;;18.00;66.10;;;;;;5068309;28;43925;-72
2022/12/27 04:02:40;;;;;;;0.83;0.83;;;17.90;66.10;;;;;;5083928;28;43724;-70
2022/12/27 04:05:09;;;;;;;0.83;0.83;;;17.90;66.20;;;;;;5087050;28;43432;-71
2022/12/27 04:07:37;;;;;;;0.80;0.80;;;17.90;66.40;;;;;;5086650;28;43379;-72
2022/12/27 04:34:56;;;;;;;1.00;1.00;;;17.80;66.60;;;;;;5086397;28;43948;-71
2022/12/27 04:37:26;;;;;;;0.80;0.80;;;17.70;66.60;;;;;;5086448;28;43350;-70
2022/12/27 04:56:26;;;;;;;0.80;0.80;;;18.00;65.90;;;;;;5067721;28;46383;-71
2022/12/27 05:04:25;;;;;;;0.80;0.80;;;17.90;66.10;;;;;;5084477;28;43499;-70
2022/12/27 05:06:53;;;;;;;0.77;0.77;;;17.80;66.20;;;;;;5063213;28;45457;-72
2022/12/27 05:14:54;;;;;;;0.90;0.90;;;17.80;66.30;;;;;;5086328;28;43343;-72
2022/12/27 05:17:22;;;;;;;0.90;0.90;;;17.80;66.40;;;;;;5064675;28;45776;-71
2022/12/27 05:19:50;;;;;;;0.90;0.90;;;17.80;66.60;;;;;;5085739;28;43410;-71
2022/12/27 05:25:53;;;;;;;0.87;0.87;;;17.70;66.60;;;;;;5085404;27;43485;-71
2022/12/27 05:28:24;;;;;;;0.70;0.70;;;17.90;66.20;;;;;;5069834;28;45697;-71
2022/12/27 05:30:52;;;;;;;0.80;0.80;;;18.00;65.90;;;;;;5069209;28;45135;-70
2022/12/27 05:33:23;;;;;;;0.80;0.80;;;18.00;65.70;;;;;;5071109;28;43421;-70
2022/12/27 05:36:27;;;;;;;0.80;0.80;;;17.90;65.90;;;;;;5092186;27;43520;-70
2022/12/27 05:39:40;;;;;;;0.83;0.83;;;17.90;66.10;;;;;;5087914;27;44079;-71
2022/12/27 05:42:21;;;;;;;0.93;0.93;;;17.90;66.00;;;;;;5076010;28;44350;-70
2022/12/27 05:45:09;;;;;;;0.83;0.83;;;17.90;66.10;;;;;;5088741;28;43463;-71
2022/12/27 05:49:18;;;;;;;0.87;0.87;;;17.80;66.10;;;;;;5088185;27;43510;-72
2022/12/27 05:51:57;;;;;;;0.83;0.83;;;17.80;66.30;;;;;;5069610;28;45528;-71
2022/12/27 05:54:25;;;;;;;0.80;0.80;;;17.70;66.20;;;;;;5089335;28;43386;-70
2022/12/27 05:56:53;;;;;;;0.83;0.83;;;17.80;66.20;;;;;;5070164;28;43445;-71
2022/12/27 05:59:25;;;;;;;0.70;0.70;;;17.80;66.40;;;;;;5082876;28;43860;-71
2022/12/27 06:01:54;;;;;;;0.90;0.90;;;17.70;66.30;;;;;;5088723;28;43753;-71
2022/12/27 06:04:22;;;;;;;0.80;0.80;;;17.70;66.40;;;;;;5086140;28;43485;-72
2022/12/27 06:10:43;;;;;;;0.90;0.90;;;17.70;66.40;;;;;;5069820;28;43457;-71
2022/12/27 06:21:53;;;;;;;1.00;1.00;;;17.90;65.50;;;;;;5087546;28;43497;-72
2022/12/27 06:28:04;;;;;;;0.90;0.90;;;17.90;65.50;;;;;;5068749;28;43821;-70
2022/12/27 06:30:32;;;;;;;0.90;0.90;;;17.90;65.70;;;;;;5069581;28;44552;-71
2022/12/27 06:33:03;;;;;;;0.90;0.90;;;17.80;65.80;;;;;;5088160;28;43443;-71
2022/12/27 06:35:31;;;;;;;0.70;0.70;;;17.80;65.80;;;;;;5086002;28;43744;-70
2022/12/27 06:38:01;;;;;;;1.10;1.00;;;17.80;66.10;;;;;;5084000;27;43604;-70
2022/12/27 06:40:29;;;;;;;0.80;0.80;;;17.80;65.90;;;;;;5081434;28;43456;-70
2022/12/27 06:43:24;;;;;;;1.40;1.17;;;17.80;65.80;;;;;;5085042;28;43509;-70
2022/12/27 06:45:57;;;;;;;1.03;1.03;;;17.80;65.90;;;;;;5083660;28;43344;-72
2022/12/27 06:48:25;;;;;;;1.07;1.07;;;17.80;66.10;;;;;;5068357;28;43827;-71
2022/12/27 06:50:53;;;;;;;1.10;1.10;;;17.70;65.90;;;;;;5069712;28;44589;-71
2022/12/27 06:53:22;;;;;;;1.00;1.00;;;17.70;66.20;;;;;;5069263;28;43500;-71
2022/12/27 06:55:50;;;;;;;1.20;1.10;;;17.80;66.10;;;;;;5069898;28;43527;-70
2022/12/27 06:58:18;;;;;;;1.10;1.10;;;17.90;65.80;;;;;;5087639;28;43959;-71
2022/12/27 07:00:46;;;;;;;0.93;0.90;;;17.90;65.40;;;;;;5087012;28;43522;-71
2022/12/27 07:03:14;;;;;;;1.10;1.10;;;17.90;65.50;;;;;;5069271;28;43564;-72
2022/12/27 07:05:42;;;;;;;1.60;1.00;;;17.90;65.60;;;;;;5088294;28;43442;-70
2022/12/27 07:08:13;;;;;;;1.30;1.20;;;17.80;65.80;;;;;;5069052;28;46170;-70
2022/12/27 07:10:43;;;;;;;0.90;0.90;;;17.80;65.60;;;;;;5068863;28;44658;-72
2022/12/27 07:13:11;;;;;;;1.20;1.20;;;17.80;65.40;;;;;;5069246;28;43830;-71
2022/12/27 07:15:40;;;;;;;1.07;1.07;;;17.80;65.60;;;;;;5067668;28;43633;-72
2022/12/27 07:18:08;;;;;;;1.00;1.00;;;17.80;65.80;;;;;;5067533;28;45657;-71
2022/12/27 07:20:58;;;;;;;1.00;1.00;;;17.80;65.90;;;;;;5087813;28;43443;-70
2022/12/27 07:23:45;;;;;;;1.27;1.27;;;17.80;66.10;;;;;;5086967;28;44007;-71
2022/12/27 07:26:18;;;;;;;1.17;1.17;;;17.70;65.70;;;;;;5088051;28;43423;-71
2022/12/27 07:28:46;;;;;;;1.10;1.10;;;17.70;65.90;;;;;;5085068;28;43722;-72
2022/12/27 07:31:14;;;;;;;1.20;1.20;;;17.70;65.80;;;;;;5068593;28;45049;-71
2022/12/27 07:33:43;;;;;;;1.20;1.20;;;17.70;66.00;;;;;;5087566;28;43458;-70
2022/12/27 07:36:13;;;;;;;1.20;1.20;;;17.70;65.90;;;;;;5087816;28;43454;-71
2022/12/27 07:38:41;;;;;;;1.20;1.20;;;17.70;66.10;;;;;;5087371;28;43928;-72
2022/12/27 07:41:12;;;;;;;1.20;1.20;;;17.80;65.90;;;;;;5081161;28;43500;-70
2022/12/27 07:43:42;;;;;;;1.23;1.23;;;17.90;65.40;;;;;;5066647;28;43439;-70
2022/12/27 07:46:11;;;;;;;1.20;1.20;;;18.00;65.70;;;;;;5087512;28;43485;-71
2022/12/27 07:48:40;;;;;;;1.20;1.20;;;18.00;64.80;;;;;;5085988;27;43787;-71
2022/12/27 07:51:08;;;;;;;1.30;1.30;;;18.00;64.80;;;;;;5087470;28;43688;-71
2022/12/27 07:53:37;;;;;;;1.40;1.30;;;17.90;65.10;;;;;;5086690;28;43505;-71
2022/12/27 07:56:07;;;;;;;1.20;1.20;;;17.90;64.90;;;;;;5086559;28;43947;-71
2022/12/27 07:58:42;;;;;;;1.30;1.30;;;17.90;64.90;;;;;;5087037;28;43833;-72
2022/12/27 08:01:11;;;;;;;1.37;1.37;;;17.90;65.10;;;;;;5068494;28;44742;-70
2022/12/27 08:03:40;;;;;;;1.33;1.33;;;17.80;65.10;;;;;;5087052;28;43343;-71
2022/12/27 08:06:09;;;;;;;1.40;1.40;;;17.80;65.10;;;;;;5087604;28;44237;-70
2022/12/27 08:08:37;;;;;;;1.63;1.63;;;17.70;65.50;;;;;;5086966;28;43868;-70
2022/12/27 08:11:06;;;;;;;2.17;2.17;;;17.70;64.60;;;;;;5086517;28;43433;-72
2022/12/27 08:13:34;;;;;;;2.30;2.10;;;17.70;64.20;;;;;;5068299;28;43480;-70
2022/12/27 08:16:03;;;;;;;2.10;2.10;;;17.70;64.20;;;;;;5087583;28;43438;-71
2022/12/27 08:18:33;;;;;;;2.40;2.30;;;17.70;64.30;;;;;;5066305;28;44035;-71
2022/12/27 08:21:01;;;;;;;2.40;2.30;;;17.70;64.70;;;;;;5086503;28;43412;-71
2022/12/27 08:35:15;;;;;;;2.77;2.67;;;17.70;65.10;;;;;;5066828;28;44747;-71
2022/12/27 08:38:43;;;;;;;2.70;2.50;;;17.60;65.70;;;;;;5066180;28;43574;-70
2022/12/27 08:41:43;;;;;;;2.80;2.60;;;17.70;65.70;;;;;;5067408;28;43456;-71
2022/12/27 08:44:52;;;;;;;2.93;2.70;;;17.90;65.20;;;;;;5067481;28;45449;-71
2022/12/27 08:48:13;;;;;;;2.57;2.43;;;17.90;64.50;;;;;;5086441;28;43431;-70
2022/12/27 08:50:58;;;;;;;2.90;2.67;;;17.90;64.40;;;;;;5067727;28;43905;-73
2022/12/27 08:53:26;;;;;;;2.70;2.50;;;17.90;65.20;;;;;;5078803;28;43438;-72
2022/12/27 08:55:57;;;;;;;3.03;2.83;;;17.80;64.80;;;;;;5086233;28;43821;-71
2022/12/27 08:58:25;;;;;;;2.73;2.60;;;17.80;64.70;;;;;;5086163;28;43939;-70
2022/12/27 09:00:53;;;;;;;2.67;2.57;;;17.80;64.80;;;;;;5088694;27;43472;-70
2022/12/27 09:03:21;;;;;;;2.70;2.60;;;17.80;65.00;;;;;;5090354;28;43502;-71
2022/12/27 09:06:06;;;;;;;2.60;2.40;;;17.70;65.00;;;;;;5089845;28;43781;-71
2022/12/27 09:09:16;;;;;;;2.43;2.33;;;17.70;65.50;;;;;;5068047;28;43571;-71
2022/12/27 09:12:35;;;;;;;2.57;2.47;;;17.70;65.10;;;;;;5070887;28;44492;-70
2022/12/27 09:16:04;;;;;;;2.90;2.80;;;17.70;65.20;;;;;;5078122;28;44186;-71
2022/12/27 09:22:24;;;;;;;2.60;2.50;;;17.60;65.30;;;;;;5070695;28;44615;-70
2022/12/27 09:24:53;;;;;;;2.60;2.50;;;17.70;65.90;;;;;;5084907;28;43460;-71
2022/12/27 09:27:22;;;;;;;2.60;2.50;;;17.70;65.50;;;;;;5090016;28;43352;-70
2022/12/27 09:29:50;;;;;;;2.70;2.60;;;17.90;65.10;;;;;;5089214;28;43851;-72
2022/12/27 09:32:19;;;;;;;2.70;2.60;;;17.90;64.70;;;;;;5089432;28;43932;-70
2022/12/27 09:34:48;;;;;;;2.30;2.20;;;17.90;64.60;;;;;;5087027;28;43384;-71
2022/12/27 09:37:16;;;;;;;2.43;2.33;;;17.80;64.90;;;;;;5089566;28;43439;-71
2022/12/27 09:39:44;;;;;;;2.73;2.63;;;17.80;65.00;;;;;;5088557;28;44074;-71
2022/12/27 09:42:21;;;;;;;2.47;2.37;;;17.80;64.70;;;;;;5089337;28;43521;-70
2022/12/27 09:45:13;;;;;;;2.40;2.40;;;17.80;65.00;;;;;;5089095;28;43462;-70
2022/12/27 09:47:47;;;;;;;2.47;2.37;;;17.80;65.10;;;;;;5064362;28;43624;-71
2022/12/27 09:50:26;;;;;;;2.47;2.37;;;17.70;65.20;;;;;;5067139;28;45908;-71
2022/12/27 09:52:59;;;;;;;2.40;2.30;;;17.70;65.50;;;;;;5087804;28;43707;-70
2022/12/27 09:55:34;;;;;;;2.03;2.03;;;17.70;65.40;;;;;;5089127;28;43512;-71
2022/12/27 09:58:13;;;;;;;2.53;2.53;;;17.70;65.30;;;;;;5083019;28;43737;-71
2022/12/27 10:00:44;;;;;;;2.77;2.67;;;17.70;65.50;;;;;;5088490;28;43706;-72
2022/12/27 10:03:14;;;;;;;2.60;2.50;;;17.70;65.50;;;;;;5088589;28;43466;-71
2022/12/27 10:05:42;;;;;;;2.43;2.33;;;17.60;65.40;;;;;;5088523;28;43517;-72
2022/12/27 10:08:20;;;;;;;2.60;2.50;;;17.60;65.80;;;;;;5089347;28;43526;-72
2022/12/27 10:11:49;;;;;;;2.70;2.60;;;17.70;65.90;;;;;;5069747;28;45788;-71
2022/12/27 10:15:04;;;;;;;2.60;2.60;;;17.80;65.40;;;;;;5070048;28;44540;-70
2022/12/27 10:18:22;;;;;;;2.30;2.30;;;17.80;64.90;;;;;;5067076;28;43548;-72
2022/12/27 10:21:42;;;;;;;2.57;2.43;;;17.80;65.20;;;;;;5087696;28;43841;-70
2022/12/27 10:24:16;;;;;;;2.40;2.30;;;17.80;65.40;;;;;;5083614;28;43622;-71
2022/12/27 10:26:44;;;;;;;2.50;2.40;;;17.80;65.10;;;;;;5087808;28;43415;-71
2022/12/27 10:29:15;;;;;;;2.50;2.43;;;17.80;65.40;;;;;;5082387;28;43856;-70
2022/12/27 10:31:43;;;;;;;2.30;2.30;;;17.70;65.30;;;;;;5088070;28;43939;-71
2022/12/27 10:34:15;;;;;;;2.23;2.23;;;17.70;65.40;;;;;;5088455;28;43841;-71
2022/12/27 10:37:03;;;;;;;2.50;2.40;;;17.70;65.60;;;;;;5069645;28;44769;-71
2022/12/27 10:39:59;;;;;;;2.50;2.40;;;17.60;65.70;;;;;;5083519;28;43454;-70
2022/12/27 10:43:11;;;;;;;2.20;2.20;;;17.60;65.40;;;;;;5069086;28;43630;-71
2022/12/27 10:45:41;;;;;;;2.77;2.67;;;17.60;65.80;;;;;;5069463;28;46334;-72
2022/12/27 10:48:17;;;;;;;2.50;2.40;;;17.60;65.80;;;;;;5088301;28;43443;-72
2022/12/27 10:50:47;;;;;;;2.60;2.50;;;17.60;65.80;;;;;;5069945;28;43382;-70
2022/12/27 10:53:34;;;;;;;2.40;2.33;;;17.60;65.90;;;;;;5088145;28;43966;-71
2022/12/27 10:56:10;;;;;;;2.40;2.40;;;17.60;65.80;;;;;;5088272;28;43593;-71
2022/12/27 10:58:40;;;;;;;2.53;2.43;;;17.80;65.60;;;;;;5069650;28;45560;-70
2022/12/27 11:01:16;;;;;;;2.33;2.30;;;17.80;65.10;;;;;;5069679;28;43443;-70
2022/12/27 11:03:44;;;;;;;2.27;2.20;;;17.80;64.90;;;;;;5088103;28;43581;-71
2022/12/27 11:06:23;;;;;;;2.20;2.20;;;17.80;65.10;;;;;;5088411;28;43940;-70
2022/12/27 11:08:53;;;;;;;2.50;2.40;;;17.80;65.40;;;;;;5087718;28;43551;-71
2022/12/27 11:11:22;;;;;;;2.20;2.20;;;17.80;65.20;;;;;;5087758;28;43964;-70
2022/12/27 11:13:50;;;;;;;2.53;2.47;;;17.70;65.20;;;;;;5082230;28;43470;-71
2022/12/27 11:16:23;;;;;;;2.20;2.20;;;17.70;65.40;;;;;;5087103;28;43677;-71
2022/12/27 11:18:52;;;;;;;2.30;2.20;;;17.70;65.60;;;;;;5066097;28;44618;-72
2022/12/27 11:21:20;;;;;;;2.40;2.30;;;17.60;65.50;;;;;;5086441;28;43426;-71
2022/12/27 11:23:58;;;;;;;2.50;2.40;;;17.60;65.70;;;;;;5068300;28;43605;-70
2022/12/27 11:26:28;;;;;;;2.50;2.40;;;17.60;65.50;;;;;;5087623;28;44161;-70
2022/12/27 11:28:57;;;;;;;2.27;2.27;;;17.60;65.80;;;;;;5081943;28;44015;-71
2022/12/27 11:31:52;;;;;;;2.43;2.33;;;17.60;65.70;;;;;;5087999;28;43408;-70
2022/12/27 11:34:33;;;;;;;2.40;2.30;;;17.60;65.80;;;;;;5069410;28;43518;-72
2022/12/27 11:37:03;;;;;;;2.13;2.13;;;17.50;65.80;;;;;;5087442;28;43968;-71
2022/12/27 11:39:40;;;;;;;2.27;2.27;;;17.50;65.80;;;;;;5087278;28;43470;-71
2022/12/27 11:42:13;;;;;;;2.40;2.30;;;17.60;65.80;;;;;;5087370;28;43581;-71
2022/12/27 11:44:43;;;;;;;1.93;1.93;;;17.60;65.90;;;;;;5087690;28;43420;-70
2022/12/27 11:47:12;;;;;;;2.37;2.27;;;17.60;65.90;;;;;;5087656;28;43905;-70
2022/12/27 11:49:45;;;;;;;2.47;2.37;;;17.50;65.90;;;;;;5068612;28;44453;-72
2022/12/27 11:52:32;;;;;;;2.17;2.17;;;17.50;66.00;;;;;;5062393;28;43473;-72
2022/12/27 11:55:34;;;;;;;2.10;2.10;;;17.60;66.00;;;;;;5084070;28;43438;-71
2022/12/27 11:58:32;;;;;;;2.00;2.00;;;17.70;65.60;;;;;;5062331;28;45261;-72
2022/12/27 12:07:59;;;;;;;2.50;2.40;;;17.80;65.30;;;;;;5072653;28;43420;-71
2022/12/27 12:10:32;;;;;;;1.93;1.93;;;17.80;65.30;;;;;;5081296;28;43763;-72
2022/12/27 12:13:08;;;;;;;2.13;2.03;;;17.70;65.10;;;;;;5080435;28;43394;-73
2022/12/27 12:16:00;;;;;;;2.03;2.03;;;17.70;65.40;;;;;;5086929;28;44008;-71
2022/12/27 12:18:40;;;;;;;2.03;2.03;;;17.70;65.60;;;;;;5086806;28;43623;-71
2022/12/27 12:21:33;;;;;;;2.20;2.10;;;17.60;65.60;;;;;;5068446;28;45689;-70
2022/12/27 12:24:41;;;;;;;1.93;1.93;;;17.60;65.80;;;;;;5068616;28;43439;-70
2022/12/27 12:27:32;;;;;;;1.63;1.63;;;17.60;65.70;;;;;;5068121;28;43860;-71
2022/12/27 12:30:34;;;;;;;2.17;2.17;;;17.60;65.80;;;;;;5068300;28;43998;-70
2022/12/27 12:33:12;;;;;;;1.93;1.83;;;17.60;65.80;;;;;;5084154;28;45138;-71
2022/12/27 12:35:44;;;;;;;1.73;1.73;;;17.50;65.80;;;;;;5067720;28;44779;-71
2022/12/27 12:38:18;;;;;;;2.10;2.10;;;17.50;66.00;;;;;;5084036;28;43388;-72
2022/12/27 12:41:20;;;;;;;2.10;2.10;;;17.60;66.00;;;;;;5080522;28;43826;-72
2022/12/27 12:44:11;;;;;;;2.20;2.20;;;17.70;65.60;;;;;;5084499;28;43580;-71
2022/12/27 12:46:42;;;;;;;2.00;2.00;;;17.70;65.20;;;;;;5086324;28;43387;-71
2022/12/27 12:49:24;;;;;;;2.10;2.10;;;17.70;65.50;;;;;;5067823;28;43523;-70
2022/12/27 12:52:03;;;;;;;1.80;1.80;;;17.70;65.60;;;;;;5085209;28;43983;-70
2022/12/27 12:54:49;;;;;;;1.90;1.90;;;17.60;65.70;;;;;;5085594;28;43897;-71
2022/12/27 12:57:32;;;;;;;2.07;2.00;;;17.60;65.40;;;;;;5079678;28;43531;-72
2022/12/27 13:03:51;;;;;;;1.90;1.90;;;17.60;65.80;;;;;;5064368;28;43437;-73
2022/12/27 13:06:56;;;;;;;1.80;1.80;;;17.50;65.80;;;;;;5080417;28;44333;-70
2022/12/27 13:09:32;;;;;;;1.90;1.90;;;17.50;66.00;;;;;;5081126;28;43931;-71
2022/12/27 13:12:03;;;;;;;1.93;1.93;;;17.50;65.80;;;;;;5085908;28;43461;-70
2022/12/27 13:14:49;;;;;;;1.90;1.80;;;17.50;66.10;;;;;;5086305;28;43528;-71
2022/12/27 13:17:36;;;;;;;1.90;1.90;;;17.50;66.10;;;;;;5080245;28;43874;-71
2022/12/27 13:20:15;;;;;;;1.80;1.80;;;17.50;66.10;;;;;;5067419;28;44716;-71
2022/12/27 13:22:49;;;;;;;1.83;1.83;;;17.40;66.80;;;;;;5067506;28;43483;-70
2022/12/27 13:25:23;;;;;;;1.90;1.90;;;17.40;66.10;;;;;;5085867;28;43409;-70
2022/12/27 13:27:57;;;;;;;1.70;1.70;;;17.50;65.90;;;;;;5079371;28;44601;-70
2022/12/27 13:30:51;;;;;;;1.60;1.60;;;17.50;66.20;;;;;;5064945;28;44858;-71
2022/12/27 13:41:28;;;;;;;1.93;1.83;;;17.50;66.30;;;;;;5066993;28;45394;-73
2022/12/27 13:44:31;;;;;;;1.80;1.80;;;17.50;65.90;;;;;;5067084;28;45258;-70
2022/12/27 13:47:29;;;;;;;1.90;1.80;;;17.70;65.60;;;;;;5057649;28;43495;-70
2022/12/27 13:50:17;;;;;;;1.60;1.60;;;17.80;65.10;;;;;;5052090;28;43662;-70
2022/12/27 13:52:53;;;;;;;1.53;1.53;;;17.80;65.00;;;;;;5082847;28;43905;-70
2022/12/27 13:55:48;;;;;;;1.73;1.73;;;17.70;65.20;;;;;;5088276;28;43491;-73
2022/12/27 13:58:27;;;;;;;1.70;1.70;;;17.70;65.10;;;;;;5068549;28;43847;-70
2022/12/27 14:00:57;;;;;;;1.80;1.80;;;17.70;65.20;;;;;;5071263;28;43532;-70
2022/12/27 14:03:56;;;;;;;1.60;1.60;;;17.60;65.40;;;;;;5086316;28;43659;-70
2022/12/27 14:07:17;;;;;;;1.73;1.73;;;17.60;65.60;;;;;;5067774;28;43494;-71
2022/12/27 14:10:28;;;;;;;1.53;1.53;;;17.50;65.80;;;;;;5088502;28;43532;-71
2022/12/27 14:13:53;;;;;;;1.80;1.80;;;17.50;65.80;;;;;;5069811;28;43415;-71
2022/12/27 14:20:25;;;;;;;1.77;1.77;;;17.50;65.90;;;;;;5069631;28;44533;-71
2022/12/27 14:28:23;;;;;;;1.70;1.70;;;17.50;66.10;;;;;;5066661;28;43546;-71
2022/12/27 14:32:01;;;;;;;1.60;1.60;;;17.50;66.00;;;;;;5085193;28;43556;-69
2022/12/27 14:35:26;;;;;;;1.80;1.80;;;17.50;66.10;;;;;;5086662;28;43479;-72
2022/12/27 14:39:32;;;;;;;1.60;1.50;;;17.40;66.00;;;;;;5075826;28;43476;-70
2022/12/27 14:42:59;;;;;;;1.40;1.40;;;17.40;66.20;;;;;;5008649;28;43967;-70
2022/12/27 14:45:53;;;;;;;1.87;1.77;;;17.50;65.90;;;;;;5023735;28;43907;-70
2022/12/27 14:48:52;;;;;;;1.43;1.33;;;17.70;65.60;;;;;;5025211;28;43443;-70
2022/12/27 14:51:46;;;;;;;1.60;1.60;;;17.70;65.00;;;;;;5087927;28;43355;-69
2022/12/27 14:54:57;;;;;;;1.50;1.50;;;17.70;65.30;;;;;;5086406;28;43586;-70
2022/12/27 14:57:31;;;;;;;1.70;1.70;;;17.60;65.40;;;;;;5065311;27;45353;-70
2022/12/27 15:07:52;;;;;;;1.50;1.50;;;17.50;65.80;;;;;;5083368;28;43600;-71
2022/12/27 15:13:53;;;;;;;1.60;1.60;;;17.50;66.00;;;;;;5076148;28;43589;-71
2022/12/27 15:16:24;;;;;;;1.40;1.40;;;17.50;66.00;;;;;;5068593;28;43846;-70
2022/12/27 15:19:12;;;;;;;1.50;1.50;;;17.40;65.90;;;;;;5069761;28;43503;-70
2022/12/27 15:21:47;;;;;;;1.50;1.50;;;17.40;65.90;;;;;;5081530;28;43867;-71
2022/12/27 15:24:25;;;;;;;1.90;1.77;;;17.40;66.10;;;;;;5087961;28;43395;-70
2022/12/27 15:26:55;;;;;;;1.40;1.40;;;17.40;66.20;;;;;;5083100;28;43412;-69
2022/12/27 15:29:31;;;;;;;1.70;1.70;;;17.40;65.90;;;;;;5069970;28;43491;-70
2022/12/27 15:32:04;;;;;;;1.50;1.50;;;17.40;66.10;;;;;;5087253;28;44055;-72
2022/12/27 15:34:42;;;;;;;1.50;1.50;;;17.40;66.00;;;;;;5087514;28;43428;-71
2022/12/27 15:37:43;;;;;;;1.30;1.30;;;17.40;66.10;;;;;;5087587;28;43394;-71
2022/12/27 15:40:41;;;;;;;1.33;1.33;;;17.40;66.20;;;;;;5083845;28;43519;-70
2022/12/27 15:43:16;;;;;;;1.70;1.70;;;17.40;66.20;;;;;;5055707;28;44023;-70
2022/12/27 15:46:03;;;;;;;1.30;1.30;;;17.50;65.80;;;;;;5087316;28;43446;-71
2022/12/27 15:48:58;;;;;;;1.57;1.57;;;17.60;65.40;;;;;;5068693;28;43503;-70
2022/12/27 15:51:30;;;;;;;1.47;1.47;;;17.70;65.00;;;;;;5083641;28;43335;-69
2022/12/27 15:54:10;;;;;;;1.50;1.40;;;17.70;65.00;;;;;;5068111;28;45759;-70
2022/12/27 15:56:52;;;;;;;1.67;1.67;;;17.60;65.20;;;;;;5084840;28;43437;-71
2022/12/27 15:59:45;;;;;;;1.40;1.40;;;17.60;65.20;;;;;;5087388;28;43412;-70
2022/12/27 16:02:25;;;;;;;1.60;1.60;;;17.60;65.20;;;;;;5063736;28;43398;-71
2022/12/27 16:04:55;;;;;;;1.30;1.30;;;17.60;65.50;;;;;;5085427;28;43841;-70
2022/12/27 16:07:42;;;;;;;1.30;1.30;;;17.50;65.60;;;;;;5087367;28;43512;-69
2022/12/27 16:10:37;;;;;;;1.47;1.47;;;17.50;65.80;;;;;;5083928;27;43398;-71
2022/12/27 16:13:19;;;;;;;1.73;1.70;;;17.50;65.80;;;;;;5084587;27;43394;-70
2022/12/27 16:15:52;;;;;;;1.30;1.30;;;17.50;65.80;;;;;;5086328;28;43948;-72
2022/12/27 16:19:09;;;;;;;1.40;1.40;;;17.40;65.70;;;;;;5081223;28;43654;-70
2022/12/27 16:21:42;;;;;;;1.50;1.50;;;17.50;65.90;;;;;;5069747;28;43426;-71
2022/12/27 16:24:15;;;;;;;1.60;1.60;;;17.40;65.90;;;;;;5081801;28;43348;-71
2022/12/27 16:26:50;;;;;;;1.30;1.30;;;17.40;65.90;;;;;;5086338;28;44030;-71
2022/12/27 16:29:20;;;;;;;1.53;1.53;;;17.40;65.90;;;;;;5085383;28;43431;-71
2022/12/27 16:31:49;;;;;;;1.40;1.40;;;17.50;65.60;;;;;;5086067;28;43841;-70
2022/12/27 16:34:22;;;;;;;1.30;1.30;;;17.60;65.20;;;;;;5087023;28;44127;-70
2022/12/27 16:36:51;;;;;;;1.40;1.40;;;17.60;65.00;;;;;;5085834;28;43941;-71